Time;durP1;ratioP1;P1;durP2;ratioP2;P2;SDS_P1;SDS_P2;PMS_P1;PMS_P2;Temp;Humidity;BMP_temperature;BMP_pressure;BME280_temperature;BME280_humidity;BME280_pressure;Samples;Min_cycle;Max_cycle;Signal;HPM_P1;HPM_P2
2021/11/17 02:28:09;;;;;;;3.85;1.58;;;;;;;;;;5011740;28;20205;-74
2021/11/17 02:30:35;;;;;;;1.70;1.55;;;;;;;;;;5012306;28;20241;-74
2021/11/17 02:33:20;;;;;;;0.70;0.60;;;;;;;;;;5012121;28;20167;-74
2021/11/17 02:36:04;;;;;;;0.70;0.60;;;;;;;;;;5011454;28;20429;-74
2021/11/17 02:38:36;;;;;;;1.08;0.88;;;;;;;;;;5011678;28;20183;-74
2021/11/17 02:41:11;;;;;;;0.80;0.80;;;;;;;;;;5011446;28;20182;-73
2021/11/17 02:44:07;;;;;;;0.90;0.90;;;;;;;;;;5010685;28;20202;-74
2021/11/17 02:46:33;;;;;;;2.58;1.13;;;;;;;;;;4990038;28;20241;-74
2021/11/17 02:49:13;;;;;;;1.58;1.48;;;;;;;;;;5012102;28;20281;-73
2021/11/17 02:52:00;;;;;;;0.70;0.60;;;;;;;;;;4998313;28;20201;-74
2021/11/17 02:54:42;;;;;;;1.90;1.80;;;;;;;;;;5018526;28;20234;-74
2021/11/17 02:57:07;;;;;;;0.70;0.70;;;;;;;;;;5011363;28;20255;-74
2021/11/17 02:59:33;;;;;;;2.43;2.33;;;;;;;;;;4994124;28;20206;-74
2021/11/17 03:02:05;;;;;;;1.37;1.30;;;;;;;;;;5011961;28;20430;-73
2021/11/17 03:04:44;;;;;;;0.70;0.63;;;;;;;;;;4994013;28;20970;-74
2021/11/17 03:07:31;;;;;;;0.80;0.80;;;;;;;;;;5010775;28;20213;-73
2021/11/17 03:09:57;;;;;;;0.70;0.60;;;;;;;;;;4994439;28;20209;-74
2021/11/17 03:12:36;;;;;;;0.70;0.70;;;;;;;;;;4997339;28;20178;-74
2021/11/17 03:15:05;;;;;;;0.70;0.60;;;;;;;;;;5015619;28;20504;-73
2021/11/17 03:17:50;;;;;;;1.25;1.15;;;;;;;;;;5015053;28;20895;-74
2021/11/17 03:20:30;;;;;;;0.70;0.70;;;;;;;;;;5016403;28;20189;-74
2021/11/17 03:22:56;;;;;;;0.70;0.60;;;;;;;;;;5026428;28;20183;-74
2021/11/17 03:25:42;;;;;;;1.00;0.90;;;;;;;;;;5035679;28;20178;-74
2021/11/17 03:28:21;;;;;;;0.70;0.70;;;;;;;;;;5035122;28;20419;-74
2021/11/17 03:30:47;;;;;;;0.70;0.70;;;;;;;;;;5035321;28;20197;-74
2021/11/17 03:33:22;;;;;;;0.70;0.60;;;;;;;;;;5023656;28;20693;-74
2021/11/17 03:35:58;;;;;;;2.15;0.90;;;;;;;;;;5014714;28;20916;-74
2021/11/17 03:38:42;;;;;;;0.70;0.60;;;;;;;;;;4997763;28;20209;-75
2021/11/17 03:41:16;;;;;;;0.95;0.93;;;;;;;;;;5015328;28;20171;-73
2021/11/17 03:43:45;;;;;;;1.50;1.40;;;;;;;;;;4996742;28;20293;-74
2021/11/17 03:46:14;;;;;;;2.65;2.35;;;;;;;;;;5014484;28;20187;-73
2021/11/17 03:48:49;;;;;;;1.40;1.30;;;;;;;;;;5015071;28;20646;-74
2021/11/17 03:51:24;;;;;;;0.80;0.80;;;;;;;;;;5024046;28;20182;-74
2021/11/17 03:53:53;;;;;;;0.77;0.77;;;;;;;;;;5024212;28;20195;-74
2021/11/17 03:56:40;;;;;;;1.35;1.25;;;;;;;;;;5014186;28;20186;-74
2021/11/17 03:59:09;;;;;;;0.70;0.70;;;;;;;;;;5015235;28;20178;-74
2021/11/17 04:01:35;;;;;;;1.83;1.65;;;;;;;;;;5014439;28;20198;-74
2021/11/17 04:04:10;;;;;;;0.80;0.80;;;;;;;;;;5014356;28;20234;-74
2021/11/17 04:06:55;;;;;;;1.60;1.50;;;;;;;;;;4996919;28;20497;-74
2021/11/17 04:09:21;;;;;;;3.67;2.45;;;;;;;;;;5014846;28;20206;-74
2021/11/17 04:11:54;;;;;;;0.70;0.60;;;;;;;;;;5014114;28;20255;-74
2021/11/17 04:14:29;;;;;;;0.80;0.70;;;;;;;;;;5013863;28;20465;-74
2021/11/17 04:16:58;;;;;;;0.70;0.60;;;;;;;;;;5013911;28;20221;-74
2021/11/17 04:19:30;;;;;;;0.70;0.60;;;;;;;;;;5014607;28;20781;-74
2021/11/17 04:22:14;;;;;;;2.25;2.15;;;;;;;;;;5009836;28;20650;-73
2021/11/17 04:24:46;;;;;;;0.70;0.70;;;;;;;;;;5019227;28;20273;-74
2021/11/17 04:27:24;;;;;;;3.42;2.42;;;;;;;;;;5013976;28;20308;-73
2021/11/17 04:30:18;;;;;;;0.70;0.60;;;;;;;;;;5013397;28;20280;-74
2021/11/17 04:32:59;;;;;;;0.70;0.60;;;;;;;;;;5014155;28;20558;-74
2021/11/17 04:35:28;;;;;;;0.95;0.85;;;;;;;;;;5013913;28;20183;-74
2021/11/17 04:37:56;;;;;;;0.70;0.70;;;;;;;;;;5013195;28;20178;-74
2021/11/17 04:40:30;;;;;;;0.70;0.60;;;;;;;;;;5013936;28;20179;-74
2021/11/17 04:43:15;;;;;;;0.70;0.60;;;;;;;;;;5013533;28;20187;-74
2021/11/17 04:45:59;;;;;;;0.70;0.60;;;;;;;;;;5013808;28;20186;-73
2021/11/17 04:48:32;;;;;;;0.77;0.77;;;;;;;;;;5013507;28;20214;-74
2021/11/17 04:50:58;;;;;;;0.70;0.60;;;;;;;;;;5020549;28;20206;-74
2021/11/17 04:54:00;;;;;;;0.90;0.90;;;;;;;;;;5025507;28;20194;-74
2021/11/17 04:56:38;;;;;;;0.70;0.70;;;;;;;;;;4952785;28;20426;-74
2021/11/17 04:59:04;;;;;;;0.70;0.60;;;;;;;;;;5015043;28;20203;-74
2021/11/17 05:01:32;;;;;;;0.70;0.60;;;;;;;;;;5013990;28;20186;-74
2021/11/17 05:04:23;;;;;;;1.40;1.38;;;;;;;;;;5013285;28;20532;-73
2021/11/17 05:06:49;;;;;;;0.80;0.80;;;;;;;;;;4976173;28;20187;-73
2021/11/17 05:09:34;;;;;;;2.97;1.37;;;;;;;;;;5002419;28;20701;-75
2021/11/17 05:12:18;;;;;;;0.80;0.80;;;;;;;;;;5014019;28;20426;-74
2021/11/17 05:14:56;;;;;;;1.95;1.58;;;;;;;;;;5013354;28;20206;-74
2021/11/17 05:17:47;;;;;;;3.15;1.10;;;;;;;;;;5012311;28;20174;-74
2021/11/17 05:20:34;;;;;;;0.70;0.70;;;;;;;;;;5013409;28;20592;-74
2021/11/17 05:23:06;;;;;;;0.70;0.60;;;;;;;;;;5011283;28;20186;-75
2021/11/17 05:25:49;;;;;;;0.60;0.60;;;;;;;;;;4995372;28;20190;-74
2021/11/17 05:28:27;;;;;;;0.70;0.60;;;;;;;;;;4995976;28;20238;-73
2021/11/17 05:31:06;;;;;;;0.90;0.90;;;;;;;;;;5012963;28;20198;-74
2021/11/17 05:33:38;;;;;;;0.63;0.60;;;;;;;;;;5012177;28;20209;-73
2021/11/17 05:36:19;;;;;;;0.70;0.70;;;;;;;;;;5012281;28;20187;-74
2021/11/17 05:39:01;;;;;;;1.15;1.15;;;;;;;;;;5013321;28;20233;-74
2021/11/17 05:41:33;;;;;;;0.60;0.60;;;;;;;;;;5013289;28;20522;-74
2021/11/17 05:44:05;;;;;;;2.70;2.50;;;;;;;;;;5012986;28;20195;-74
2021/11/17 05:46:49;;;;;;;0.70;0.60;;;;;;;;;;4997285;28;20556;-74
2021/11/17 05:49:21;;;;;;;1.15;1.05;;;;;;;;;;5032766;28;20715;-73
2021/11/17 05:51:47;;;;;;;0.70;0.70;;;;;;;;;;5009647;28;20189;-74
2021/11/17 05:54:20;;;;;;;0.70;0.70;;;;;;;;;;5024848;28;20198;-73
2021/11/17 05:56:58;;;;;;;0.70;0.60;;;;;;;;;;5015163;28;20430;-74
2021/11/17 05:59:44;;;;;;;3.30;2.75;;;;;;;;;;5007430;28;20186;-74
2021/11/17 06:02:13;;;;;;;0.80;0.80;;;;;;;;;;5012375;28;20658;-74
2021/11/17 06:04:39;;;;;;;0.60;0.60;;;;;;;;;;5012370;28;20709;-74
2021/11/17 06:07:05;;;;;;;5.33;1.83;;;;;;;;;;5012137;28;20366;-73
2021/11/17 06:09:31;;;;;;;0.60;0.60;;;;;;;;;;5012364;28;20449;-74
2021/11/17 06:11:58;;;;;;;0.70;0.60;;;;;;;;;;5012707;28;21001;-74
2021/11/17 06:14:30;;;;;;;1.52;1.00;;;;;;;;;;4994497;28;20473;-74
2021/11/17 06:17:00;;;;;;;0.70;0.60;;;;;;;;;;5010683;28;20244;-73
2021/11/17 06:19:27;;;;;;;3.55;1.60;;;;;;;;;;5005731;28;20266;-74
2021/11/17 06:21:54;;;;;;;0.77;0.77;;;;;;;;;;5027067;28;20214;-72
2021/11/17 06:24:21;;;;;;;0.90;0.90;;;;;;;;;;5015270;28;20203;-74
2021/11/17 06:26:47;;;;;;;0.90;0.90;;;;;;;;;;5015858;28;20813;-72
2021/11/17 06:29:21;;;;;;;0.60;0.60;;;;;;;;;;5012262;28;20202;-72
2021/11/17 06:31:47;;;;;;;0.95;0.95;;;;;;;;;;5012346;28;20619;-72
2021/11/17 06:34:27;;;;;;;2.05;1.30;;;;;;;;;;5012375;28;20195;-72
2021/11/17 06:36:53;;;;;;;3.80;1.80;;;;;;;;;;5011242;28;20734;-72
2021/11/17 06:39:20;;;;;;;0.65;0.65;;;;;;;;;;5012015;28;20214;-72
2021/11/17 06:41:46;;;;;;;1.08;1.08;;;;;;;;;;5012421;28;20198;-72
2021/11/17 06:44:12;;;;;;;1.67;1.58;;;;;;;;;;5011652;28;20265;-72
2021/11/17 06:46:38;;;;;;;2.00;1.37;;;;;;;;;;4993645;28;20179;-72
2021/11/17 06:49:04;;;;;;;0.70;0.60;;;;;;;;;;4994020;28;20453;-72
2021/11/17 06:51:30;;;;;;;0.70;0.70;;;;;;;;;;5011988;28;20523;-72
2021/11/17 06:53:56;;;;;;;0.70;0.60;;;;;;;;;;5027865;28;20202;-72
2021/11/17 06:56:22;;;;;;;5.03;2.38;;;;;;;;;;5022391;28;20201;-72
2021/11/17 06:58:48;;;;;;;2.88;1.65;;;;;;;;;;5011555;28;20171;-71
2021/11/17 07:01:14;;;;;;;0.70;0.70;;;;;;;;;;4996553;28;20178;-72
2021/11/17 07:03:40;;;;;;;2.08;1.70;;;;;;;;;;5011635;28;20454;-72
2021/11/17 07:06:07;;;;;;;2.83;1.42;;;;;;;;;;5011247;28;20186;-72
2021/11/17 07:08:33;;;;;;;2.10;0.93;;;;;;;;;;5011267;28;20246;-72
2021/11/17 07:10:59;;;;;;;0.70;0.70;;;;;;;;;;5011519;28;20213;-72
2021/11/17 07:13:25;;;;;;;3.30;1.05;;;;;;;;;;5011760;28;20197;-72
2021/11/17 07:15:51;;;;;;;1.83;1.73;;;;;;;;;;5002839;28;20179;-72
2021/11/17 07:18:18;;;;;;;0.70;0.65;;;;;;;;;;5008755;28;20438;-72
2021/11/17 07:20:44;;;;;;;0.70;0.60;;;;;;;;;;5016263;28;20186;-72
2021/11/17 07:23:11;;;;;;;2.25;0.93;;;;;;;;;;5010418;28;20201;-72
2021/11/17 07:25:37;;;;;;;1.10;1.00;;;;;;;;;;5014867;28;20193;-72
2021/11/17 07:28:03;;;;;;;0.90;0.90;;;;;;;;;;5010814;28;20627;-72
2021/11/17 07:30:33;;;;;;;1.23;1.10;;;;;;;;;;5011615;28;20203;-72
2021/11/17 07:33:00;;;;;;;0.77;0.77;;;;;;;;;;5011851;28;20163;-72
2021/11/17 07:35:26;;;;;;;1.25;1.25;;;;;;;;;;5010732;28;20175;-69
2021/11/17 07:37:53;;;;;;;1.25;1.15;;;;;;;;;;5010626;28;20175;-71
2021/11/17 07:40:19;;;;;;;0.90;0.90;;;;;;;;;;5011500;28;20589;-70
2021/11/17 07:42:45;;;;;;;0.60;0.60;;;;;;;;;;5010653;28;20781;-72
2021/11/17 07:45:13;;;;;;;0.90;0.90;;;;;;;;;;5011711;28;20199;-72
2021/11/17 07:47:39;;;;;;;0.60;0.60;;;;;;;;;;5010912;28;20179;-72
2021/11/17 07:50:06;;;;;;;0.70;0.70;;;;;;;;;;5011631;28;20288;-72
2021/11/17 07:52:33;;;;;;;2.15;1.10;;;;;;;;;;5024598;28;20174;-72
2021/11/17 07:54:59;;;;;;;0.70;0.60;;;;;;;;;;5028649;28;20190;-71
2021/11/17 07:57:25;;;;;;;1.00;1.00;;;;;;;;;;5033247;28;20183;-72
2021/11/17 07:59:51;;;;;;;0.70;0.70;;;;;;;;;;5034959;28;20444;-72
2021/11/17 08:02:17;;;;;;;0.90;0.90;;;;;;;;;;5034730;28;20770;-72
2021/11/17 08:04:44;;;;;;;0.85;0.85;;;;;;;;;;5034259;28;20301;-72
2021/11/17 08:07:13;;;;;;;0.70;0.70;;;;;;;;;;5014415;28;20202;-73
2021/11/17 08:09:39;;;;;;;0.60;0.60;;;;;;;;;;5013764;28;20199;-72
2021/11/17 08:12:06;;;;;;;1.65;1.55;;;;;;;;;;5014489;28;20175;-73
2021/11/17 08:14:33;;;;;;;0.63;0.60;;;;;;;;;;5015060;28;20187;-72
2021/11/17 08:16:59;;;;;;;4.20;0.98;;;;;;;;;;5014134;28;20179;-72
2021/11/17 08:19:24;;;;;;;1.00;0.90;;;;;;;;;;5014966;28;20202;-72
2021/11/17 08:21:50;;;;;;;0.70;0.70;;;;;;;;;;5028102;28;20432;-73
2021/11/17 08:24:16;;;;;;;0.60;0.60;;;;;;;;;;5026155;28;20451;-72
2021/11/17 08:26:42;;;;;;;1.27;1.17;;;;;;;;;;5033692;28;20412;-72
2021/11/17 08:29:09;;;;;;;0.70;0.60;;;;;;;;;;5034436;28;20510;-73
2021/11/17 08:31:36;;;;;;;0.60;0.60;;;;;;;;;;5015427;28;20502;-73
2021/11/17 08:34:02;;;;;;;0.70;0.70;;;;;;;;;;5014594;28;20726;-72
2021/11/17 08:36:28;;;;;;;3.47;3.28;;;;;;;;;;5013773;28;20171;-73
2021/11/17 08:38:54;;;;;;;0.73;0.73;;;;;;;;;;5013115;28;20179;-73
2021/11/17 08:41:23;;;;;;;0.80;0.80;;;;;;;;;;5014218;28;20171;-72
2021/11/17 08:43:49;;;;;;;0.77;0.77;;;;;;;;;;5014321;28;20214;-73
2021/11/17 08:46:15;;;;;;;2.40;1.67;;;;;;;;;;5013719;28;20261;-73
2021/11/17 08:48:41;;;;;;;0.90;0.90;;;;;;;;;;5014331;28;20493;-73
2021/11/17 08:51:13;;;;;;;0.70;0.70;;;;;;;;;;5022184;28;20544;-73
2021/11/17 08:53:40;;;;;;;0.70;0.70;;;;;;;;;;5024998;28;20197;-72
2021/11/17 08:56:07;;;;;;;1.45;1.35;;;;;;;;;;5015401;28;20747;-72
2021/11/17 08:58:33;;;;;;;0.60;0.60;;;;;;;;;;5014188;28;20167;-72
2021/11/17 09:01:00;;;;;;;0.80;0.80;;;;;;;;;;5014034;28;20174;-73
2021/11/17 09:03:27;;;;;;;0.60;0.60;;;;;;;;;;5013995;28;20600;-73
2021/11/17 09:05:54;;;;;;;0.70;0.70;;;;;;;;;;5012792;28;20175;-72
2021/11/17 09:08:21;;;;;;;1.30;1.27;;;;;;;;;;5011437;28;20271;-73
2021/11/17 09:10:48;;;;;;;1.20;1.15;;;;;;;;;;5013860;28;20230;-73
2021/11/17 09:13:15;;;;;;;0.60;0.60;;;;;;;;;;5013822;28;20204;-73
2021/11/17 09:15:42;;;;;;;1.20;1.10;;;;;;;;;;5013526;28;20171;-72
2021/11/17 09:18:08;;;;;;;0.70;0.70;;;;;;;;;;5013564;28;20630;-72
2021/11/17 09:20:34;;;;;;;2.78;2.67;;;;;;;;;;5017006;28;20698;-73
2021/11/17 09:23:01;;;;;;;0.70;0.60;;;;;;;;;;5024565;28;20187;-73
2021/11/17 09:25:28;;;;;;;0.70;0.70;;;;;;;;;;5033120;28;20166;-71
2021/11/17 09:27:54;;;;;;;2.55;1.20;;;;;;;;;;5032358;28;20253;-72
2021/11/17 09:30:22;;;;;;;0.80;0.80;;;;;;;;;;5024521;28;20209;-73
2021/11/17 09:32:49;;;;;;;1.25;1.25;;;;;;;;;;5013544;28;20175;-72
2021/11/17 09:35:15;;;;;;;0.60;0.60;;;;;;;;;;4995719;28;20230;-73
2021/11/17 09:37:42;;;;;;;1.08;1.02;;;;;;;;;;5012644;28;20608;-73
2021/11/17 09:40:09;;;;;;;2.78;2.67;;;;;;;;;;5012258;28;20186;-73
2021/11/17 09:42:36;;;;;;;0.70;0.60;;;;;;;;;;4995769;28;20186;-73
2021/11/17 09:45:04;;;;;;;0.70;0.70;;;;;;;;;;5013107;28;20198;-73
2021/11/17 09:47:33;;;;;;;0.82;0.82;;;;;;;;;;5012420;28;20182;-73
2021/11/17 09:50:02;;;;;;;0.60;0.60;;;;;;;;;;5013142;28;20207;-73
2021/11/17 09:52:34;;;;;;;0.80;0.80;;;;;;;;;;5026514;28;20178;-73
2021/11/17 09:55:05;;;;;;;0.60;0.60;;;;;;;;;;5030429;28;20208;-73
2021/11/17 09:57:35;;;;;;;2.53;1.13;;;;;;;;;;5014411;28;20623;-73
2021/11/17 10:00:05;;;;;;;0.60;0.60;;;;;;;;;;5032832;28;20599;-73
2021/11/17 10:02:37;;;;;;;1.13;1.13;;;;;;;;;;5032297;28;20182;-73
2021/11/17 10:05:03;;;;;;;0.77;0.77;;;;;;;;;;5032148;28;20205;-73
2021/11/17 10:12:57;;;;;;;0.70;0.70;;;;;;;;;;5012543;28;20534;-73
2021/11/17 10:15:25;;;;;;;1.02;0.98;;;;;;;;;;5008448;28;20171;-73
2021/11/17 10:17:54;;;;;;;0.70;0.70;;;;;;;;;;4992480;28;20264;-73
2021/11/17 10:20:30;;;;;;;0.60;0.60;;;;;;;;;;4995353;28;20254;-73
2021/11/17 10:23:08;;;;;;;0.60;0.60;;;;;;;;;;5023762;28;20171;-73
2021/11/17 10:25:42;;;;;;;0.70;0.70;;;;;;;;;;5014733;28;20643;-73
2021/11/17 10:28:08;;;;;;;2.97;0.98;;;;;;;;;;5007685;28;20666;-73
2021/11/17 10:30:39;;;;;;;1.23;1.08;;;;;;;;;;5012538;28;20238;-73
2021/11/17 10:33:11;;;;;;;1.73;1.63;;;;;;;;;;5012386;28;20525;-73
2021/11/17 10:35:57;;;;;;;0.60;0.60;;;;;;;;;;5012300;28;20171;-74
2021/11/17 10:38:26;;;;;;;0.70;0.70;;;;;;;;;;5005585;28;20545;-72
2021/11/17 10:40:53;;;;;;;1.60;1.50;;;;;;;;;;5011319;28;20206;-72
2021/11/17 10:43:22;;;;;;;0.77;0.77;;;;;;;;;;5018354;28;20217;-73
2021/11/17 10:45:51;;;;;;;4.82;1.13;;;;;;;;;;5031511;28;20182;-72
2021/11/17 10:48:25;;;;;;;0.60;0.60;;;;;;;;;;5031996;28;20257;-72
2021/11/17 10:50:51;;;;;;;1.75;1.50;;;;;;;;;;5004273;28;20214;-72
2021/11/17 10:53:27;;;;;;;0.90;0.90;;;;;;;;;;5023517;28;20677;-73
2021/11/17 10:55:54;;;;;;;0.68;0.68;;;;;;;;;;5031085;28;20170;-72
2021/11/17 10:58:27;;;;;;;0.60;0.60;;;;;;;;;;5031745;28;20179;-73
2021/11/17 11:00:59;;;;;;;1.33;1.23;;;;;;;;;;5031918;28;20213;-73
2021/11/17 11:03:27;;;;;;;6.28;1.00;;;;;;;;;;5031494;28;20201;-73
2021/11/17 11:05:56;;;;;;;0.82;0.82;;;;;;;;;;5017615;28;20678;-72
2021/11/17 11:08:25;;;;;;;2.80;1.55;;;;;;;;;;4994084;28;20214;-72
2021/11/17 11:10:53;;;;;;;0.93;0.93;;;;;;;;;;5011534;28;20272;-73
2021/11/17 11:13:21;;;;;;;5.28;1.38;;;;;;;;;;5011891;28;20197;-73
2021/11/17 11:15:49;;;;;;;0.90;0.90;;;;;;;;;;5011377;28;20183;-72
2021/11/17 11:18:16;;;;;;;0.80;0.80;;;;;;;;;;5011240;28;20201;-72
2021/11/17 11:20:42;;;;;;;2.63;1.95;;;;;;;;;;5016158;28;20178;-73
2021/11/17 11:23:08;;;;;;;0.80;0.80;;;;;;;;;;5023103;28;20178;-73
2021/11/17 11:25:37;;;;;;;1.00;1.00;;;;;;;;;;5031309;28;20405;-73
2021/11/17 11:28:21;;;;;;;0.60;0.60;;;;;;;;;;5030849;28;20221;-73
2021/11/17 11:30:49;;;;;;;0.60;0.60;;;;;;;;;;5031594;28;20235;-73
2021/11/17 11:33:21;;;;;;;0.70;0.70;;;;;;;;;;5035305;28;20225;-73
2021/11/17 11:36:06;;;;;;;0.73;0.73;;;;;;;;;;5034916;28;20174;-73
2021/11/17 11:38:33;;;;;;;0.60;0.60;;;;;;;;;;5030176;28;20560;-72
2021/11/17 11:41:01;;;;;;;0.70;0.70;;;;;;;;;;5003602;28;20644;-73
2021/11/17 11:43:27;;;;;;;1.70;1.58;;;;;;;;;;5014563;28;20210;-73
2021/11/17 11:45:55;;;;;;;0.70;0.70;;;;;;;;;;5014738;28;20448;-73
2021/11/17 11:48:26;;;;;;;1.70;1.60;;;;;;;;;;5015435;28;20673;-73
2021/11/17 11:50:55;;;;;;;0.60;0.60;;;;;;;;;;5021182;28;20673;-73
2021/11/17 11:53:27;;;;;;;1.08;0.98;;;;;;;;;;5020315;28;20195;-73
2021/11/17 11:56:00;;;;;;;0.60;0.60;;;;;;;;;;5011030;28;20213;-73
2021/11/17 11:58:26;;;;;;;0.70;0.70;;;;;;;;;;5015508;28;20195;-73
2021/11/17 12:01:07;;;;;;;0.80;0.80;;;;;;;;;;5015258;28;20201;-73
2021/11/17 12:03:34;;;;;;;2.78;1.00;;;;;;;;;;5014993;28;20449;-74
2021/11/17 12:06:06;;;;;;;1.58;1.52;;;;;;;;;;5014495;28;20396;-73
2021/11/17 12:08:35;;;;;;;0.80;0.80;;;;;;;;;;5008716;28;20187;-74
2021/11/17 12:11:03;;;;;;;1.55;1.05;;;;;;;;;;5007331;28;20675;-73
2021/11/17 12:13:34;;;;;;;3.20;2.25;;;;;;;;;;4995387;28;20556;-73
2021/11/17 12:16:03;;;;;;;0.60;0.60;;;;;;;;;;5009706;28;20179;-73
2021/11/17 12:18:31;;;;;;;0.60;0.60;;;;;;;;;;5014761;28;20174;-73
2021/11/17 12:21:00;;;;;;;2.45;0.88;;;;;;;;;;5013534;28;20678;-73
2021/11/17 12:23:29;;;;;;;1.33;1.23;;;;;;;;;;5027899;28;20198;-73
2021/11/17 12:26:00;;;;;;;0.90;0.90;;;;;;;;;;5013815;28;20525;-73
2021/11/17 12:28:27;;;;;;;0.93;0.93;;;;;;;;;;5014631;28;20175;-71
2021/11/17 12:31:01;;;;;;;2.30;2.15;;;;;;;;;;5014489;28;20682;-72
2021/11/17 12:33:34;;;;;;;0.85;0.85;;;;;;;;;;5014569;28;20552;-73
2021/11/17 12:36:03;;;;;;;1.85;1.75;;;;;;;;;;5007273;28;20420;-73
2021/11/17 12:38:35;;;;;;;1.00;0.90;;;;;;;;;;5010200;28;20206;-73
2021/11/17 12:41:05;;;;;;;0.85;0.85;;;;;;;;;;5013761;28;20179;-73
2021/11/17 12:44:00;;;;;;;2.28;1.08;;;;;;;;;;5014073;28;20211;-73
2021/11/17 12:46:29;;;;;;;1.55;1.45;;;;;;;;;;5011580;28;20198;-73
2021/11/17 12:48:55;;;;;;;1.63;1.52;;;;;;;;;;5014331;28;20208;-73
2021/11/17 12:51:24;;;;;;;9.63;1.30;;;;;;;;;;5008744;28;20214;-73
2021/11/17 12:53:58;;;;;;;1.23;1.13;;;;;;;;;;5025178;28;20429;-73
2021/11/17 12:56:32;;;;;;;1.73;0.82;;;;;;;;;;5031965;28;20261;-72
2021/11/17 12:59:12;;;;;;;0.70;0.70;;;;;;;;;;5014132;28;20166;-73
2021/11/17 13:01:40;;;;;;;1.10;0.93;;;;;;;;;;5013961;28;20174;-73
2021/11/17 13:04:16;;;;;;;1.52;1.45;;;;;;;;;;5013853;28;20210;-73
2021/11/17 13:06:44;;;;;;;1.30;1.30;;;;;;;;;;5013512;28;20569;-74
2021/11/17 13:09:23;;;;;;;1.15;1.15;;;;;;;;;;5012739;28;20202;-74
2021/11/17 13:12:02;;;;;;;0.80;0.80;;;;;;;;;;5014047;28;20216;-74
2021/11/17 13:14:36;;;;;;;1.65;1.40;;;;;;;;;;5013782;28;20183;-73
2021/11/17 13:17:07;;;;;;;1.38;1.27;;;;;;;;;;5012755;28;20186;-73
2021/11/17 13:19:36;;;;;;;3.50;3.30;;;;;;;;;;5013340;28;20175;-73
2021/11/17 13:22:07;;;;;;;0.60;0.60;;;;;;;;;;5017281;28;20187;-73
2021/11/17 13:24:37;;;;;;;1.75;1.65;;;;;;;;;;5026746;28;20710;-73
2021/11/17 13:27:09;;;;;;;5.93;2.05;;;;;;;;;;5032545;28;20174;-73
2021/11/17 13:29:47;;;;;;;1.05;1.05;;;;;;;;;;5033150;28;20190;-73
2021/11/17 13:32:13;;;;;;;1.17;1.08;;;;;;;;;;5033304;28;20174;-73
2021/11/17 13:34:47;;;;;;;1.63;1.53;;;;;;;;;;5015411;28;20225;-74
2021/11/17 13:37:32;;;;;;;1.17;1.02;;;;;;;;;;5032147;28;20500;-73
2021/11/17 13:40:00;;;;;;;1.30;1.23;;;;;;;;;;5018069;28;20186;-73
2021/11/17 13:42:26;;;;;;;0.70;0.70;;;;;;;;;;5013229;28;20175;-73
2021/11/17 13:44:54;;;;;;;1.25;1.25;;;;;;;;;;5013030;28;20200;-73
2021/11/17 13:47:21;;;;;;;2.00;1.35;;;;;;;;;;5031828;28;20228;-73
2021/11/17 13:49:48;;;;;;;0.82;0.82;;;;;;;;;;5032944;28;20202;-73
2021/11/17 13:52:17;;;;;;;4.43;2.00;;;;;;;;;;5032936;28;20190;-73
2021/11/17 13:54:43;;;;;;;0.88;0.88;;;;;;;;;;5023557;28;20216;-73
2021/11/17 13:57:10;;;;;;;0.60;0.60;;;;;;;;;;5009245;28;20187;-73
2021/11/17 13:59:37;;;;;;;1.02;0.85;;;;;;;;;;5013009;28;20191;-73
2021/11/17 14:02:03;;;;;;;0.77;0.77;;;;;;;;;;5012611;28;20261;-73
2021/11/17 14:04:29;;;;;;;0.70;0.70;;;;;;;;;;5012734;28;20218;-73
2021/11/17 14:06:56;;;;;;;1.83;1.73;;;;;;;;;;5045121;22;20327;-77
2021/11/17 14:09:22;;;;;;;0.80;0.80;;;;;;;;;;5045758;28;20189;-77
2021/11/17 14:11:49;;;;;;;0.90;0.90;;;;;;;;;;5052625;28;20224;-77
2021/11/17 14:14:15;;;;;;;1.73;1.50;;;;;;;;;;5042231;28;20417;-77
2021/11/17 14:16:41;;;;;;;3.95;2.65;;;;;;;;;;5031825;28;20205;-77
2021/11/17 14:19:07;;;;;;;0.65;0.65;;;;;;;;;;5032847;28;20174;-77
2021/11/17 14:21:33;;;;;;;1.75;1.65;;;;;;;;;;5030206;28;20681;-77
2021/11/17 14:23:59;;;;;;;1.00;1.00;;;;;;;;;;5032470;28;20209;-77
2021/11/17 14:26:26;;;;;;;2.80;2.70;;;;;;;;;;5028916;28;20198;-77
2021/11/17 14:29:00;;;;;;;1.10;1.10;;;;;;;;;;5032231;28;20740;-77
2021/11/17 14:31:38;;;;;;;1.20;1.10;;;;;;;;;;5032024;28;20593;-77
2021/11/17 14:34:04;;;;;;;2.58;1.50;;;;;;;;;;5032403;28;20174;-77
2021/11/17 14:36:44;;;;;;;1.00;1.00;;;;;;;;;;5034466;28;20564;-77
2021/11/17 14:39:10;;;;;;;1.00;1.00;;;;;;;;;;5041006;28;20257;-77
2021/11/17 14:41:37;;;;;;;0.75;0.75;;;;;;;;;;5036824;28;20178;-77
2021/11/17 14:44:04;;;;;;;2.65;2.45;;;;;;;;;;5031951;28;20551;-77
2021/11/17 14:46:30;;;;;;;0.60;0.60;;;;;;;;;;5049265;28;20201;-77
2021/11/17 14:48:56;;;;;;;0.60;0.60;;;;;;;;;;5041210;28;20671;-77
2021/11/17 14:51:22;;;;;;;1.30;1.30;;;;;;;;;;5031718;28;20667;-77
2021/11/17 14:53:49;;;;;;;1.52;1.42;;;;;;;;;;5037113;28;20241;-77
2021/11/17 14:56:16;;;;;;;2.15;1.60;;;;;;;;;;5032762;28;20201;-77
2021/11/17 14:58:42;;;;;;;3.08;1.73;;;;;;;;;;5051622;28;20173;-77
2021/11/17 15:01:11;;;;;;;0.80;0.80;;;;;;;;;;5051882;28;20181;-77
2021/11/17 15:03:38;;;;;;;1.48;1.48;;;;;;;;;;5051916;28;20405;-77
2021/11/17 15:06:04;;;;;;;1.70;1.70;;;;;;;;;;5038667;28;20693;-77
2021/11/17 15:08:30;;;;;;;0.60;0.60;;;;;;;;;;5037055;28;20196;-77
2021/11/17 15:10:56;;;;;;;1.15;1.15;;;;;;;;;;5034192;28;20518;-77
2021/11/17 15:13:22;;;;;;;3.37;2.00;;;;;;;;;;5031913;28;20257;-77
2021/11/17 15:15:49;;;;;;;9.70;1.90;;;;;;;;;;5031169;28;20411;-77
2021/11/17 15:18:20;;;;;;;0.80;0.80;;;;;;;;;;5031248;28;20463;-77
2021/11/17 15:20:46;;;;;;;0.70;0.70;;;;;;;;;;5031768;28;20174;-77
2021/11/17 15:23:12;;;;;;;1.05;1.05;;;;;;;;;;5030945;28;20728;-77
2021/11/17 15:25:40;;;;;;;0.90;0.90;;;;;;;;;;5031604;28;20186;-77
2021/11/17 15:28:11;;;;;;;3.28;2.63;;;;;;;;;;5031152;28;20176;-77
2021/11/17 15:30:43;;;;;;;1.15;1.05;;;;;;;;;;5031774;28;20289;-77
2021/11/17 15:33:09;;;;;;;1.73;1.63;;;;;;;;;;5031610;28;20204;-77
2021/11/17 15:35:35;;;;;;;1.27;1.17;;;;;;;;;;5031373;28;20174;-77
2021/11/17 15:38:02;;;;;;;1.35;1.25;;;;;;;;;;5032880;28;20206;-81
2021/11/17 15:40:30;;;;;;;10.10;2.38;;;;;;;;;;5049663;28;20186;-77
2021/11/17 15:42:57;;;;;;;0.70;0.70;;;;;;;;;;5051249;28;20224;-77
2021/11/17 15:45:23;;;;;;;0.80;0.80;;;;;;;;;;5051444;28;20238;-77
2021/11/17 15:47:50;;;;;;;3.88;1.73;;;;;;;;;;5050760;28;20605;-77
2021/11/17 15:50:18;;;;;;;1.20;1.20;;;;;;;;;;5043508;28;20206;-77
2021/11/17 15:52:44;;;;;;;1.98;1.60;;;;;;;;;;5013810;28;20535;-77
2021/11/17 15:55:12;;;;;;;1.73;1.53;;;;;;;;;;5031352;28;20170;-77
2021/11/17 15:57:39;;;;;;;1.33;1.33;;;;;;;;;;5030518;28;20429;-77
2021/11/17 16:00:05;;;;;;;1.10;1.10;;;;;;;;;;5031650;28;20182;-77
2021/11/17 16:02:31;;;;;;;2.75;2.65;;;;;;;;;;5031357;28;20175;-77
2021/11/17 16:04:57;;;;;;;1.13;1.13;;;;;;;;;;5031244;28;20629;-77
2021/11/17 16:07:23;;;;;;;3.75;1.80;;;;;;;;;;5033632;28;20474;-77
2021/11/17 16:09:54;;;;;;;0.70;0.70;;;;;;;;;;5042907;28;20668;-77
2021/11/17 16:12:20;;;;;;;0.95;0.90;;;;;;;;;;5053724;28;20408;-77
2021/11/17 16:14:46;;;;;;;1.13;1.13;;;;;;;;;;5039087;28;20213;-77
2021/11/17 16:17:12;;;;;;;3.28;1.75;;;;;;;;;;5035099;28;20205;-77
2021/11/17 16:19:41;;;;;;;1.35;1.25;;;;;;;;;;5034932;28;20177;-77
2021/11/17 16:22:13;;;;;;;4.45;1.48;;;;;;;;;;5034469;28;20174;-77
2021/11/17 16:27:24;;;;;;;2.42;2.33;;;;;;;;;;5033928;28;20213;-77
2021/11/17 16:29:51;;;;;;;2.15;2.05;;;;;;;;;;5034667;28;20212;-77
2021/11/17 16:32:18;;;;;;;0.60;0.60;;;;;;;;;;5034888;28;20178;-77
2021/11/17 16:34:46;;;;;;;13.18;1.88;;;;;;;;;;5034762;28;20257;-77
2021/11/17 16:37:13;;;;;;;1.48;1.45;;;;;;;;;;5033849;28;20416;-77
2021/11/17 16:39:39;;;;;;;2.75;2.55;;;;;;;;;;5043879;28;20186;-77
2021/11/17 16:42:05;;;;;;;1.33;1.27;;;;;;;;;;5034819;28;20186;-78
2021/11/17 16:44:31;;;;;;;1.13;1.02;;;;;;;;;;5034239;28;20923;-77
2021/11/17 16:46:57;;;;;;;1.70;1.60;;;;;;;;;;5033927;28;20202;-78
2021/11/17 16:49:24;;;;;;;1.90;1.80;;;;;;;;;;5034828;28;20210;-77
2021/11/17 16:52:08;;;;;;;1.70;1.60;;;;;;;;;;5034461;28;20420;-77
2021/11/17 16:54:35;;;;;;;1.45;1.35;;;;;;;;;;5034795;28;20189;-77
2021/11/17 16:57:01;;;;;;;0.98;0.98;;;;;;;;;;5034052;28;20229;-77
2021/11/17 16:59:27;;;;;;;2.70;2.50;;;;;;;;;;5032164;28;20210;-77
2021/11/17 17:01:53;;;;;;;0.80;0.80;;;;;;;;;;5030487;28;20448;-77
2021/11/17 17:04:19;;;;;;;1.17;1.17;;;;;;;;;;5037999;28;20424;-78
2021/11/17 17:06:49;;;;;;;0.95;0.95;;;;;;;;;;5034440;28;20499;-77
2021/11/17 17:09:15;;;;;;;2.80;2.70;;;;;;;;;;5044047;28;20221;-77
2021/11/17 17:11:41;;;;;;;1.17;1.07;;;;;;;;;;5015864;28;20174;-77
2021/11/17 17:14:07;;;;;;;0.68;0.68;;;;;;;;;;5033303;28;20415;-77
2021/11/17 17:16:33;;;;;;;1.88;1.63;;;;;;;;;;5038041;28;20215;-77
2021/11/17 17:18:59;;;;;;;1.43;1.33;;;;;;;;;;5043990;28;20525;-77
2021/11/17 17:21:25;;;;;;;1.63;1.53;;;;;;;;;;5033751;28;20421;-78
2021/11/17 17:23:50;;;;;;;13.50;3.43;;;;;;;;;;5031412;28;20432;-77
2021/11/17 17:26:18;;;;;;;2.00;1.90;;;;;;;;;;5033125;28;20449;-78
2021/11/17 17:28:45;;;;;;;1.67;1.65;;;;;;;;;;5032389;28;20440;-78
2021/11/17 17:31:13;;;;;;;2.45;2.35;;;;;;;;;;5033265;28;20210;-77
2021/11/17 17:33:40;;;;;;;2.08;1.98;;;;;;;;;;5032534;28;20645;-77
2021/11/17 17:36:08;;;;;;;0.73;0.73;;;;;;;;;;5033194;28;20214;-77